sensor_id;sensor_type;location;lat;lon;timestamp;temperature;humidity
49731;DHT22;35622;52.008;5.426;2023-02-04T00:00:13;13.10;68.30
49731;DHT22;35622;52.008;5.426;2023-02-04T00:02:40;13.00;68.30
49731;DHT22;35622;52.008;5.426;2023-02-04T00:05:07;12.90;69.00
49731;DHT22;35622;52.008;5.426;2023-02-04T00:07:33;12.70;69.90
49731;DHT22;35622;52.008;5.426;2023-02-04T00:09:58;12.90;70.00
49731;DHT22;35622;52.008;5.426;2023-02-04T00:12:24;12.90;69.50
49731;DHT22;35622;52.008;5.426;2023-02-04T00:14:49;12.70;70.00
49731;DHT22;35622;52.008;5.426;2023-02-04T00:17:15;12.70;70.20
49731;DHT22;35622;52.008;5.426;2023-02-04T00:19:41;12.80;70.30
49731;DHT22;35622;52.008;5.426;2023-02-04T00:22:07;12.70;70.40
49731;DHT22;35622;52.008;5.426;2023-02-04T00:24:34;12.70;70.30
49731;DHT22;35622;52.008;5.426;2023-02-04T00:27:00;12.70;70.50
49731;DHT22;35622;52.008;5.426;2023-02-04T00:29:25;12.70;70.00
49731;DHT22;35622;52.008;5.426;2023-02-04T00:31:51;12.60;70.60
49731;DHT22;35622;52.008;5.426;2023-02-04T00:34:17;12.70;70.60
49731;DHT22;35622;52.008;5.426;2023-02-04T00:36:43;12.60;70.50
49731;DHT22;35622;52.008;5.426;2023-02-04T00:39:08;12.50;71.40
49731;DHT22;35622;52.008;5.426;2023-02-04T00:41:34;12.40;71.20
49731;DHT22;35622;52.008;5.426;2023-02-04T00:43:59;12.30;71.80
49731;DHT22;35622;52.008;5.426;2023-02-04T00:46:25;12.40;71.50
49731;DHT22;35622;52.008;5.426;2023-02-04T00:48:50;12.10;72.00
49731;DHT22;35622;52.008;5.426;2023-02-04T00:51:16;12.20;72.20
49731;DHT22;35622;52.008;5.426;2023-02-04T00:53:42;12.20;71.70
49731;DHT22;35622;52.008;5.426;2023-02-04T00:56:07;12.20;72.10
49731;DHT22;35622;52.008;5.426;2023-02-04T00:58:33;12.20;71.70
49731;DHT22;35622;52.008;5.426;2023-02-04T01:00:58;12.10;72.80
49731;DHT22;35622;52.008;5.426;2023-02-04T01:03:24;12.10;71.90
49731;DHT22;35622;52.008;5.426;2023-02-04T01:05:49;11.80;72.10
49731;DHT22;35622;52.008;5.426;2023-02-04T01:08:15;11.70;72.90
49731;DHT22;35622;52.008;5.426;2023-02-04T01:10:41;11.80;73.00
49731;DHT22;35622;52.008;5.426;2023-02-04T01:13:06;11.60;72.90
49731;DHT22;35622;52.008;5.426;2023-02-04T01:15:33;11.50;73.30
49731;DHT22;35622;52.008;5.426;2023-02-04T01:17:58;11.40;73.40
49731;DHT22;35622;52.008;5.426;2023-02-04T01:20:24;11.20;74.10
49731;DHT22;35622;52.008;5.426;2023-02-04T01:22:50;11.20;74.60
49731;DHT22;35622;52.008;5.426;2023-02-04T01:25:15;11.30;74.50
49731;DHT22;35622;52.008;5.426;2023-02-04T01:27:42;11.40;74.20
49731;DHT22;35622;52.008;5.426;2023-02-04T01:30:08;11.30;74.30
49731;DHT22;35622;52.008;5.426;2023-02-04T01:32:34;11.20;74.60
49731;DHT22;35622;52.008;5.426;2023-02-04T01:35:00;11.30;74.60
49731;DHT22;35622;52.008;5.426;2023-02-04T01:37:25;11.30;74.80
49731;DHT22;35622;52.008;5.426;2023-02-04T01:39:51;11.30;75.00
49731;DHT22;35622;52.008;5.426;2023-02-04T01:42:16;11.30;75.60
49731;DHT22;35622;52.008;5.426;2023-02-04T01:44:42;11.30;75.80
49731;DHT22;35622;52.008;5.426;2023-02-04T01:47:08;11.30;75.70
49731;DHT22;35622;52.008;5.426;2023-02-04T01:49:34;10.90;76.90
49731;DHT22;35622;52.008;5.426;2023-02-04T01:52:01;11.00;77.60
49731;DHT22;35622;52.008;5.426;2023-02-04T01:54:27;11.00;77.50
49731;DHT22;35622;52.008;5.426;2023-02-04T01:56:53;10.90;77.70
49731;DHT22;35622;52.008;5.426;2023-02-04T01:59:20;11.00;77.80
49731;DHT22;35622;52.008;5.426;2023-02-04T02:01:48;10.90;77.50
49731;DHT22;35622;52.008;5.426;2023-02-04T02:04:19;11.10;77.40
49731;DHT22;35622;52.008;5.426;2023-02-04T02:06:54;11.10;77.50
49731;DHT22;35622;52.008;5.426;2023-02-04T02:09:24;11.00;77.90
49731;DHT22;35622;52.008;5.426;2023-02-04T02:11:50;11.00;79.10
49731;DHT22;35622;52.008;5.426;2023-02-04T02:14:15;11.00;79.10
49731;DHT22;35622;52.008;5.426;2023-02-04T02:16:41;11.10;79.00
49731;DHT22;35622;52.008;5.426;2023-02-04T02:19:09;11.00;79.40
49731;DHT22;35622;52.008;5.426;2023-02-04T02:24:51;11.20;79.60
49731;DHT22;35622;52.008;5.426;2023-02-04T02:27:17;11.20;79.80
49731;DHT22;35622;52.008;5.426;2023-02-04T02:29:42;11.20;79.80
49731;DHT22;35622;52.008;5.426;2023-02-04T02:32:09;11.20;79.70
49731;DHT22;35622;52.008;5.426;2023-02-04T02:34:37;11.20;79.70
49731;DHT22;35622;52.008;5.426;2023-02-04T02:37:05;11.10;80.00
49731;DHT22;35622;52.008;5.426;2023-02-04T02:39:31;11.20;80.90
49731;DHT22;35622;52.008;5.426;2023-02-04T02:41:58;11.40;79.00
49731;DHT22;35622;52.008;5.426;2023-02-04T02:44:24;11.40;78.80
49731;DHT22;35622;52.008;5.426;2023-02-04T02:46:51;11.40;78.40
49731;DHT22;35622;52.008;5.426;2023-02-04T02:49:18;11.40;78.40
49731;DHT22;35622;52.008;5.426;2023-02-04T02:51:45;11.40;78.10
49731;DHT22;35622;52.008;5.426;2023-02-04T02:54:28;11.50;77.70
49731;DHT22;35622;52.008;5.426;2023-02-04T02:56:55;11.40;77.60
49731;DHT22;35622;52.008;5.426;2023-02-04T02:59:21;11.40;77.90
49731;DHT22;35622;52.008;5.426;2023-02-04T03:01:53;11.30;78.10
49731;DHT22;35622;52.008;5.426;2023-02-04T03:04:19;11.30;78.10
49731;DHT22;35622;52.008;5.426;2023-02-04T03:06:46;11.30;78.00
49731;DHT22;35622;52.008;5.426;2023-02-04T03:09:11;11.20;78.30
49731;DHT22;35622;52.008;5.426;2023-02-04T03:11:37;11.50;77.80
49731;DHT22;35622;52.008;5.426;2023-02-04T03:14:03;11.40;77.60
49731;DHT22;35622;52.008;5.426;2023-02-04T03:16:32;11.20;77.60
49731;DHT22;35622;52.008;5.426;2023-02-04T03:19:02;11.10;77.90
49731;DHT22;35622;52.008;5.426;2023-02-04T03:21:29;11.10;77.50
49731;DHT22;35622;52.008;5.426;2023-02-04T03:23:55;10.90;77.90
49731;DHT22;35622;52.008;5.426;2023-02-04T03:26:24;10.80;78.70
49731;DHT22;35622;52.008;5.426;2023-02-04T03:28:52;11.00;78.50
49731;DHT22;35622;52.008;5.426;2023-02-04T03:31:18;11.20;78.30
49731;DHT22;35622;52.008;5.426;2023-02-04T03:33:44;10.90;78.80
49731;DHT22;35622;52.008;5.426;2023-02-04T03:36:10;10.90;80.00
49731;DHT22;35622;52.008;5.426;2023-02-04T03:38:35;10.80;80.10
49731;DHT22;35622;52.008;5.426;2023-02-04T03:41:01;10.90;79.00
49731;DHT22;35622;52.008;5.426;2023-02-04T03:43:27;10.80;79.20
49731;DHT22;35622;52.008;5.426;2023-02-04T03:45:52;10.70;79.20
49731;DHT22;35622;52.008;5.426;2023-02-04T03:48:18;10.70;78.90
49731;DHT22;35622;52.008;5.426;2023-02-04T03:50:44;10.70;79.20
49731;DHT22;35622;52.008;5.426;2023-02-04T03:53:10;10.50;79.80
49731;DHT22;35622;52.008;5.426;2023-02-04T03:55:35;10.60;80.60
49731;DHT22;35622;52.008;5.426;2023-02-04T03:58:02;10.60;80.60
49731;DHT22;35622;52.008;5.426;2023-02-04T04:00:27;10.60;80.80
49731;DHT22;35622;52.008;5.426;2023-02-04T04:02:54;10.50;81.00
49731;DHT22;35622;52.008;5.426;2023-02-04T04:05:20;10.70;81.20
49731;DHT22;35622;52.008;5.426;2023-02-04T04:07:45;10.70;80.70
49731;DHT22;35622;52.008;5.426;2023-02-04T04:10:11;10.90;80.60
49731;DHT22;35622;52.008;5.426;2023-02-04T04:12:37;10.80;81.40
49731;DHT22;35622;52.008;5.426;2023-02-04T04:15:03;10.90;80.20
49731;DHT22;35622;52.008;5.426;2023-02-04T04:17:28;10.90;79.60
49731;DHT22;35622;52.008;5.426;2023-02-04T04:19:54;10.90;79.50
49731;DHT22;35622;52.008;5.426;2023-02-04T04:22:20;10.80;79.50
49731;DHT22;35622;52.008;5.426;2023-02-04T04:24:45;10.90;79.50
49731;DHT22;35622;52.008;5.426;2023-02-04T04:27:11;10.80;79.10
49731;DHT22;35622;52.008;5.426;2023-02-04T04:29:37;10.80;78.80
49731;DHT22;35622;52.008;5.426;2023-02-04T04:32:02;10.60;78.80
49731;DHT22;35622;52.008;5.426;2023-02-04T04:34:29;10.60;78.80
49731;DHT22;35622;52.008;5.426;2023-02-04T04:36:55;10.50;78.90
49731;DHT22;35622;52.008;5.426;2023-02-04T04:39:20;10.50;78.10
49731;DHT22;35622;52.008;5.426;2023-02-04T04:41:46;10.40;78.20
49731;DHT22;35622;52.008;5.426;2023-02-04T04:44:12;10.40;78.10
49731;DHT22;35622;52.008;5.426;2023-02-04T04:46:37;10.30;77.80
49731;DHT22;35622;52.008;5.426;2023-02-04T04:49:05;10.20;77.60
49731;DHT22;35622;52.008;5.426;2023-02-04T04:51:30;10.20;77.80
49731;DHT22;35622;52.008;5.426;2023-02-04T04:53:57;10.10;77.80
49731;DHT22;35622;52.008;5.426;2023-02-04T04:56:23;10.20;77.30
49731;DHT22;35622;52.008;5.426;2023-02-04T04:58:48;10.20;77.10
49731;DHT22;35622;52.008;5.426;2023-02-04T05:01:14;10.10;76.40
49731;DHT22;35622;52.008;5.426;2023-02-04T05:03:39;9.90;76.80
49731;DHT22;35622;52.008;5.426;2023-02-04T05:06:05;9.80;77.20
49731;DHT22;35622;52.008;5.426;2023-02-04T05:08:30;9.80;78.00
49731;DHT22;35622;52.008;5.426;2023-02-04T05:10:56;9.80;78.00
49731;DHT22;35622;52.008;5.426;2023-02-04T05:13:21;9.90;77.30
49731;DHT22;35622;52.008;5.426;2023-02-04T05:15:49;9.90;77.80
49731;DHT22;35622;52.008;5.426;2023-02-04T05:18:15;9.90;78.10
49731;DHT22;35622;52.008;5.426;2023-02-04T05:20:40;10.00;78.10
49731;DHT22;35622;52.008;5.426;2023-02-04T05:23:06;10.00;78.40
49731;DHT22;35622;52.008;5.426;2023-02-04T05:25:32;10.00;78.70
49731;DHT22;35622;52.008;5.426;2023-02-04T05:27:57;10.20;78.60
49731;DHT22;35622;52.008;5.426;2023-02-04T05:30:23;10.40;78.10
49731;DHT22;35622;52.008;5.426;2023-02-04T05:32:48;10.40;78.10
49731;DHT22;35622;52.008;5.426;2023-02-04T05:35:14;10.30;78.40
49731;DHT22;35622;52.008;5.426;2023-02-04T05:37:39;10.30;78.70
49731;DHT22;35622;52.008;5.426;2023-02-04T05:40:05;10.40;78.90
49731;DHT22;35622;52.008;5.426;2023-02-04T05:42:31;10.50;79.00
49731;DHT22;35622;52.008;5.426;2023-02-04T05:44:57;10.60;78.30
49731;DHT22;35622;52.008;5.426;2023-02-04T05:47:22;10.50;78.10
49731;DHT22;35622;52.008;5.426;2023-02-04T05:49:48;10.50;78.20
49731;DHT22;35622;52.008;5.426;2023-02-04T05:52:13;10.60;78.50
49731;DHT22;35622;52.008;5.426;2023-02-04T05:54:39;10.70;78.30
49731;DHT22;35622;52.008;5.426;2023-02-04T05:57:05;10.70;78.20
49731;DHT22;35622;52.008;5.426;2023-02-04T05:59:30;10.70;78.00
49731;DHT22;35622;52.008;5.426;2023-02-04T06:01:56;10.70;78.20
49731;DHT22;35622;52.008;5.426;2023-02-04T06:04:21;10.70;78.50
49731;DHT22;35622;52.008;5.426;2023-02-04T06:06:47;10.70;78.30
49731;DHT22;35622;52.008;5.426;2023-02-04T06:09:12;10.80;78.10
49731;DHT22;35622;52.008;5.426;2023-02-04T06:11:38;10.90;77.90
49731;DHT22;35622;52.008;5.426;2023-02-04T06:14:04;10.80;77.60
49731;DHT22;35622;52.008;5.426;2023-02-04T06:16:29;10.80;77.60
49731;DHT22;35622;52.008;5.426;2023-02-04T06:18:55;10.80;77.80
49731;DHT22;35622;52.008;5.426;2023-02-04T06:21:20;10.90;78.00
49731;DHT22;35622;52.008;5.426;2023-02-04T06:23:46;11.00;77.30
49731;DHT22;35622;52.008;5.426;2023-02-04T06:26:12;11.10;76.70
49731;DHT22;35622;52.008;5.426;2023-02-04T06:28:37;10.90;77.80
49731;DHT22;35622;52.008;5.426;2023-02-04T06:31:03;10.70;77.30
49731;DHT22;35622;52.008;5.426;2023-02-04T06:33:28;11.00;77.40
49731;DHT22;35622;52.008;5.426;2023-02-04T06:35:54;11.10;76.70
49731;DHT22;35622;52.008;5.426;2023-02-04T06:38:20;11.00;76.80
49731;DHT22;35622;52.008;5.426;2023-02-04T06:40:45;10.90;77.30
49731;DHT22;35622;52.008;5.426;2023-02-04T06:43:18;10.90;77.50
49731;DHT22;35622;52.008;5.426;2023-02-04T06:45:43;11.10;76.60
49731;DHT22;35622;52.008;5.426;2023-02-04T06:48:09;11.10;76.50
49731;DHT22;35622;52.008;5.426;2023-02-04T06:50:34;11.10;76.70
49731;DHT22;35622;52.008;5.426;2023-02-04T06:53:00;11.10;76.70
49731;DHT22;35622;52.008;5.426;2023-02-04T06:55:25;11.10;77.10
49731;DHT22;35622;52.008;5.426;2023-02-04T06:57:51;11.10;77.20
49731;DHT22;35622;52.008;5.426;2023-02-04T07:00:17;11.00;77.40
49731;DHT22;35622;52.008;5.426;2023-02-04T07:02:42;11.10;77.60
49731;DHT22;35622;52.008;5.426;2023-02-04T07:05:10;11.00;78.90
49731;DHT22;35622;52.008;5.426;2023-02-04T07:07:36;10.90;78.50
49731;DHT22;35622;52.008;5.426;2023-02-04T07:10:02;10.90;78.50
49731;DHT22;35622;52.008;5.426;2023-02-04T07:12:27;10.90;79.10
49731;DHT22;35622;52.008;5.426;2023-02-04T07:14:53;10.90;79.10
49731;DHT22;35622;52.008;5.426;2023-02-04T07:17:18;10.80;79.00
49731;DHT22;35622;52.008;5.426;2023-02-04T07:19:44;10.80;79.30
49731;DHT22;35622;52.008;5.426;2023-02-04T07:22:09;10.90;79.50
49731;DHT22;35622;52.008;5.426;2023-02-04T07:24:35;10.80;79.50
49731;DHT22;35622;52.008;5.426;2023-02-04T07:27:00;10.90;79.70
49731;DHT22;35622;52.008;5.426;2023-02-04T07:29:26;10.80;79.40
49731;DHT22;35622;52.008;5.426;2023-02-04T07:31:52;11.10;79.50
49731;DHT22;35622;52.008;5.426;2023-02-04T07:34:18;11.10;79.00
49731;DHT22;35622;52.008;5.426;2023-02-04T07:36:44;11.10;79.20
49731;DHT22;35622;52.008;5.426;2023-02-04T07:39:09;11.20;78.50
49731;DHT22;35622;52.008;5.426;2023-02-04T07:41:35;11.10;78.70
49731;DHT22;35622;52.008;5.426;2023-02-04T07:44:01;11.10;78.90
49731;DHT22;35622;52.008;5.426;2023-02-04T07:46:27;11.20;79.10
49731;DHT22;35622;52.008;5.426;2023-02-04T07:48:52;11.40;79.30
49731;DHT22;35622;52.008;5.426;2023-02-04T07:51:18;11.50;79.10
49731;DHT22;35622;52.008;5.426;2023-02-04T07:53:43;11.60;78.40
49731;DHT22;35622;52.008;5.426;2023-02-04T07:56:09;11.50;78.30
49731;DHT22;35622;52.008;5.426;2023-02-04T07:58:35;11.60;78.50
49731;DHT22;35622;52.008;5.426;2023-02-04T08:01:00;11.70;78.60
49731;DHT22;35622;52.008;5.426;2023-02-04T08:03:26;11.80;78.30
49731;DHT22;35622;52.008;5.426;2023-02-04T08:05:52;11.80;78.40
49731;DHT22;35622;52.008;5.426;2023-02-04T08:08:19;11.90;78.10
49731;DHT22;35622;52.008;5.426;2023-02-04T08:10:44;12.00;77.60
49731;DHT22;35622;52.008;5.426;2023-02-04T08:13:10;12.10;77.50
49731;DHT22;35622;52.008;5.426;2023-02-04T08:15:36;12.10;77.60
49731;DHT22;35622;52.008;5.426;2023-02-04T08:18:01;12.10;77.60
49731;DHT22;35622;52.008;5.426;2023-02-04T08:20:27;12.10;78.00
49731;DHT22;35622;52.008;5.426;2023-02-04T08:22:52;12.10;77.60
49731;DHT22;35622;52.008;5.426;2023-02-04T08:25:18;12.20;77.70
49731;DHT22;35622;52.008;5.426;2023-02-04T08:27:43;12.30;77.80
49731;DHT22;35622;52.008;5.426;2023-02-04T08:30:09;12.40;77.70
49731;DHT22;35622;52.008;5.426;2023-02-04T08:32:35;12.50;77.00
49731;DHT22;35622;52.008;5.426;2023-02-04T08:35:01;12.70;77.00
49731;DHT22;35622;52.008;5.426;2023-02-04T08:37:27;12.70;76.70
49731;DHT22;35622;52.008;5.426;2023-02-04T08:39:52;12.70;76.90
49731;DHT22;35622;52.008;5.426;2023-02-04T08:42:18;12.80;77.00
49731;DHT22;35622;52.008;5.426;2023-02-04T08:44:44;12.80;76.70
49731;DHT22;35622;52.008;5.426;2023-02-04T08:47:10;12.90;76.60
49731;DHT22;35622;52.008;5.426;2023-02-04T08:49:50;13.00;76.70
49731;DHT22;35622;52.008;5.426;2023-02-04T08:52:16;13.10;76.50
49731;DHT22;35622;52.008;5.426;2023-02-04T08:54:41;13.30;75.70
49731;DHT22;35622;52.008;5.426;2023-02-04T08:57:07;13.40;73.90
49731;DHT22;35622;52.008;5.426;2023-02-04T08:59:32;13.50;73.10
49731;DHT22;35622;52.008;5.426;2023-02-04T09:01:58;13.40;73.60
49731;DHT22;35622;52.008;5.426;2023-02-04T09:04:23;13.60;73.90
49731;DHT22;35622;52.008;5.426;2023-02-04T09:06:50;13.80;74.20
49731;DHT22;35622;52.008;5.426;2023-02-04T09:09:16;14.00;73.20
49731;DHT22;35622;52.008;5.426;2023-02-04T09:11:42;14.20;73.00
49731;DHT22;35622;52.008;5.426;2023-02-04T09:14:08;14.40;72.80
49731;DHT22;35622;52.008;5.426;2023-02-04T09:16:34;14.60;72.10
49731;DHT22;35622;52.008;5.426;2023-02-04T09:19:00;14.80;70.50
49731;DHT22;35622;52.008;5.426;2023-02-04T09:21:28;14.40;68.80
49731;DHT22;35622;52.008;5.426;2023-02-04T09:23:54;14.20;69.70
49731;DHT22;35622;52.008;5.426;2023-02-04T09:26:20;14.60;70.40
49731;DHT22;35622;52.008;5.426;2023-02-04T09:28:45;14.90;70.30
49731;DHT22;35622;52.008;5.426;2023-02-04T09:31:13;15.40;70.40
49731;DHT22;35622;52.008;5.426;2023-02-04T09:33:38;16.00;68.10
49731;DHT22;35622;52.008;5.426;2023-02-04T09:36:04;16.30;67.10
49731;DHT22;35622;52.008;5.426;2023-02-04T09:38:30;16.40;65.20
49731;DHT22;35622;52.008;5.426;2023-02-04T09:41:02;16.60;62.70
49731;DHT22;35622;52.008;5.426;2023-02-04T09:43:34;16.70;59.90
49731;DHT22;35622;52.008;5.426;2023-02-04T09:46:01;16.50;60.10
49731;DHT22;35622;52.008;5.426;2023-02-04T09:48:27;16.40;61.00
49731;DHT22;35622;52.008;5.426;2023-02-04T09:51:02;16.60;60.60
49731;DHT22;35622;52.008;5.426;2023-02-04T09:53:29;16.70;59.30
49731;DHT22;35622;52.008;5.426;2023-02-04T09:55:55;16.90;59.00
49731;DHT22;35622;52.008;5.426;2023-02-04T09:58:22;16.90;58.30
49731;DHT22;35622;52.008;5.426;2023-02-04T10:00:59;16.90;56.90
49731;DHT22;35622;52.008;5.426;2023-02-04T10:03:25;16.80;56.90
49731;DHT22;35622;52.008;5.426;2023-02-04T10:05:51;16.80;57.00
49731;DHT22;35622;52.008;5.426;2023-02-04T10:08:28;16.70;57.60
49731;DHT22;35622;52.008;5.426;2023-02-04T10:10:54;16.90;57.10
49731;DHT22;35622;52.008;5.426;2023-02-04T10:13:26;17.10;57.70
49731;DHT22;35622;52.008;5.426;2023-02-04T10:15:54;17.70;56.40
49731;DHT22;35622;52.008;5.426;2023-02-04T10:18:30;18.90;53.40
49731;DHT22;35622;52.008;5.426;2023-02-04T10:21:16;20.00;51.80
49731;DHT22;35622;52.008;5.426;2023-02-04T10:23:45;21.20;48.70
49731;DHT22;35622;52.008;5.426;2023-02-04T10:26:12;22.20;43.40
49731;DHT22;35622;52.008;5.426;2023-02-04T10:28:38;22.50;40.70
49731;DHT22;35622;52.008;5.426;2023-02-04T10:31:05;22.20;41.80
49731;DHT22;35622;52.008;5.426;2023-02-04T10:33:33;22.10;41.80
49731;DHT22;35622;52.008;5.426;2023-02-04T10:36:03;21.40;43.00
49731;DHT22;35622;52.008;5.426;2023-02-04T10:38:30;21.60;43.90
49731;DHT22;35622;52.008;5.426;2023-02-04T10:41:03;22.10;43.70
49731;DHT22;35622;52.008;5.426;2023-02-04T10:43:30;22.30;42.00
49731;DHT22;35622;52.008;5.426;2023-02-04T10:45:58;22.30;44.20
49731;DHT22;35622;52.008;5.426;2023-02-04T10:48:25;22.50;44.40
49731;DHT22;35622;52.008;5.426;2023-02-04T10:50:52;22.70;43.40
49731;DHT22;35622;52.008;5.426;2023-02-04T10:53:20;22.80;40.80
49731;DHT22;35622;52.008;5.426;2023-02-04T10:56:16;22.60;41.40
49731;DHT22;35622;52.008;5.426;2023-02-04T10:58:42;22.60;41.40
49731;DHT22;35622;52.008;5.426;2023-02-04T11:01:10;22.20;40.90
49731;DHT22;35622;52.008;5.426;2023-02-04T11:03:37;21.90;41.70
49731;DHT22;35622;52.008;5.426;2023-02-04T11:06:09;21.70;42.70
49731;DHT22;35622;52.008;5.426;2023-02-04T11:08:36;21.50;43.40
49731;DHT22;35622;52.008;5.426;2023-02-04T11:11:06;21.40;44.00
49731;DHT22;35622;52.008;5.426;2023-02-04T11:21:27;20.80;44.00
49731;DHT22;35622;52.008;5.426;2023-02-04T11:24:24;20.70;44.70
49731;DHT22;35622;52.008;5.426;2023-02-04T11:27:18;20.20;43.10
49731;DHT22;35622;52.008;5.426;2023-02-04T11:29:44;20.20;44.30
49731;DHT22;35622;52.008;5.426;2023-02-04T11:32:33;19.90;44.20
49731;DHT22;35622;52.008;5.426;2023-02-04T11:37:39;20.00;44.20
49731;DHT22;35622;52.008;5.426;2023-02-04T11:40:21;20.00;45.40
49731;DHT22;35622;52.008;5.426;2023-02-04T11:42:48;20.20;43.90
49731;DHT22;35622;52.008;5.426;2023-02-04T11:45:29;20.10;44.30
49731;DHT22;35622;52.008;5.426;2023-02-04T11:47:57;20.00;46.00
49731;DHT22;35622;52.008;5.426;2023-02-04T11:50:27;20.20;45.00
49731;DHT22;35622;52.008;5.426;2023-02-04T11:52:55;20.10;43.60
49731;DHT22;35622;52.008;5.426;2023-02-04T11:55:21;19.80;44.20
49731;DHT22;35622;52.008;5.426;2023-02-04T11:57:53;19.50;45.90
49731;DHT22;35622;52.008;5.426;2023-02-04T12:00:30;19.50;45.40
49731;DHT22;35622;52.008;5.426;2023-02-04T12:03:01;19.80;46.90
49731;DHT22;35622;52.008;5.426;2023-02-04T12:05:42;20.20;46.20
49731;DHT22;35622;52.008;5.426;2023-02-04T12:08:24;20.10;44.40
49731;DHT22;35622;52.008;5.426;2023-02-04T12:11:06;19.70;45.40
49731;DHT22;35622;52.008;5.426;2023-02-04T12:13:46;19.80;46.90
49731;DHT22;35622;52.008;5.426;2023-02-04T12:16:12;20.10;46.10
49731;DHT22;35622;52.008;5.426;2023-02-04T12:18:37;20.60;45.10
49731;DHT22;35622;52.008;5.426;2023-02-04T12:21:03;20.90;43.50
49731;DHT22;35622;52.008;5.426;2023-02-04T12:23:29;20.70;42.70
49731;DHT22;35622;52.008;5.426;2023-02-04T12:25:55;20.30;44.20
49731;DHT22;35622;52.008;5.426;2023-02-04T12:28:21;19.80;45.80
49731;DHT22;35622;52.008;5.426;2023-02-04T12:30:47;19.60;45.90
49731;DHT22;35622;52.008;5.426;2023-02-04T12:33:13;19.30;46.70
49731;DHT22;35622;52.008;5.426;2023-02-04T12:35:39;19.20;47.60
49731;DHT22;35622;52.008;5.426;2023-02-04T12:38:05;18.90;48.20
49731;DHT22;35622;52.008;5.426;2023-02-04T12:40:30;18.90;48.60
49731;DHT22;35622;52.008;5.426;2023-02-04T12:42:56;18.70;50.10
49731;DHT22;35622;52.008;5.426;2023-02-04T12:45:21;18.70;48.80
49731;DHT22;35622;52.008;5.426;2023-02-04T12:47:47;18.90;48.70
49731;DHT22;35622;52.008;5.426;2023-02-04T12:50:15;18.80;49.00
49731;DHT22;35622;52.008;5.426;2023-02-04T12:52:51;19.00;49.70
49731;DHT22;35622;52.008;5.426;2023-02-04T12:55:18;19.30;47.10
49731;DHT22;35622;52.008;5.426;2023-02-04T12:57:43;19.70;47.10
49731;DHT22;35622;52.008;5.426;2023-02-04T13:00:10;19.90;45.40
49731;DHT22;35622;52.008;5.426;2023-02-04T13:02:36;19.90;44.00
49731;DHT22;35622;52.008;5.426;2023-02-04T13:05:02;19.80;46.00
49731;DHT22;35622;52.008;5.426;2023-02-04T13:07:27;19.70;45.40
49731;DHT22;35622;52.008;5.426;2023-02-04T13:09:53;19.50;45.90
49731;DHT22;35622;52.008;5.426;2023-02-04T13:12:18;19.50;46.20
49731;DHT22;35622;52.008;5.426;2023-02-04T13:14:44;19.50;44.80
49731;DHT22;35622;52.008;5.426;2023-02-04T13:17:10;18.90;45.50
49731;DHT22;35622;52.008;5.426;2023-02-04T13:19:35;18.90;47.50
49731;DHT22;35622;52.008;5.426;2023-02-04T13:22:01;18.70;47.00
49731;DHT22;35622;52.008;5.426;2023-02-04T13:24:27;18.40;47.10
49731;DHT22;35622;52.008;5.426;2023-02-04T13:26:53;18.30;47.50
49731;DHT22;35622;52.008;5.426;2023-02-04T13:29:18;18.20;47.60
49731;DHT22;35622;52.008;5.426;2023-02-04T13:31:44;18.20;48.10
49731;DHT22;35622;52.008;5.426;2023-02-04T13:34:10;18.00;49.00
49731;DHT22;35622;52.008;5.426;2023-02-04T13:36:35;17.90;49.80
49731;DHT22;35622;52.008;5.426;2023-02-04T13:39:01;18.00;50.30
49731;DHT22;35622;52.008;5.426;2023-02-04T13:41:27;17.90;49.90
49731;DHT22;35622;52.008;5.426;2023-02-04T13:43:53;18.00;48.80
49731;DHT22;35622;52.008;5.426;2023-02-04T13:46:19;17.90;48.10
49731;DHT22;35622;52.008;5.426;2023-02-04T13:48:45;17.70;48.70
49731;DHT22;35622;52.008;5.426;2023-02-04T13:51:10;17.60;49.30
49731;DHT22;35622;52.008;5.426;2023-02-04T13:53:36;17.50;49.50
49731;DHT22;35622;52.008;5.426;2023-02-04T13:56:02;17.40;49.70
49731;DHT22;35622;52.008;5.426;2023-02-04T13:58:27;17.60;49.50
49731;DHT22;35622;52.008;5.426;2023-02-04T14:00:53;17.60;48.50
49731;DHT22;35622;52.008;5.426;2023-02-04T14:03:23;17.30;48.50
49731;DHT22;35622;52.008;5.426;2023-02-04T14:05:49;17.20;49.10
49731;DHT22;35622;52.008;5.426;2023-02-04T14:08:14;17.40;49.60
49731;DHT22;35622;52.008;5.426;2023-02-04T14:10:40;17.50;49.90
49731;DHT22;35622;52.008;5.426;2023-02-04T14:13:06;17.20;48.40
49731;DHT22;35622;52.008;5.426;2023-02-04T14:15:31;17.10;49.60
49731;DHT22;35622;52.008;5.426;2023-02-04T14:17:59;17.10;50.40
49731;DHT22;35622;52.008;5.426;2023-02-04T14:20:25;17.20;50.90
49731;DHT22;35622;52.008;5.426;2023-02-04T14:22:51;17.40;50.00
49731;DHT22;35622;52.008;5.426;2023-02-04T14:25:16;17.30;49.90
49731;DHT22;35622;52.008;5.426;2023-02-04T14:27:42;17.30;50.70
49731;DHT22;35622;52.008;5.426;2023-02-04T14:30:27;17.40;50.80
49731;DHT22;35622;52.008;5.426;2023-02-04T14:32:54;17.20;49.00
49731;DHT22;35622;52.008;5.426;2023-02-04T14:35:20;16.80;50.40
49731;DHT22;35622;52.008;5.426;2023-02-04T14:37:46;16.90;50.80
49731;DHT22;35622;52.008;5.426;2023-02-04T14:40:13;16.70;51.60
49731;DHT22;35622;52.008;5.426;2023-02-04T14:42:39;16.50;52.60
49731;DHT22;35622;52.008;5.426;2023-02-04T14:45:06;16.50;52.10
49731;DHT22;35622;52.008;5.426;2023-02-04T14:47:33;16.30;52.50
49731;DHT22;35622;52.008;5.426;2023-02-04T14:49:58;16.20;53.30
49731;DHT22;35622;52.008;5.426;2023-02-04T14:52:24;16.00;53.80
49731;DHT22;35622;52.008;5.426;2023-02-04T14:54:49;15.90;53.90
49731;DHT22;35622;52.008;5.426;2023-02-04T14:57:15;16.00;53.70
49731;DHT22;35622;52.008;5.426;2023-02-04T14:59:41;16.00;53.60
49731;DHT22;35622;52.008;5.426;2023-02-04T15:02:09;16.10;53.00
49731;DHT22;35622;52.008;5.426;2023-02-04T15:04:34;15.90;53.30
49731;DHT22;35622;52.008;5.426;2023-02-04T15:07:00;15.80;53.70
49731;DHT22;35622;52.008;5.426;2023-02-04T15:09:27;15.80;54.10
49731;DHT22;35622;52.008;5.426;2023-02-04T15:11:53;15.80;54.20
49731;DHT22;35622;52.008;5.426;2023-02-04T15:14:18;15.80;54.30
49731;DHT22;35622;52.008;5.426;2023-02-04T15:16:44;15.80;54.00
49731;DHT22;35622;52.008;5.426;2023-02-04T15:19:14;15.80;54.30
49731;DHT22;35622;52.008;5.426;2023-02-04T15:21:40;16.00;54.90
49731;DHT22;35622;52.008;5.426;2023-02-04T15:24:05;15.80;55.50
49731;DHT22;35622;52.008;5.426;2023-02-04T15:26:31;15.70;56.30
49731;DHT22;35622;52.008;5.426;2023-02-04T15:28:56;15.50;56.50
49731;DHT22;35622;52.008;5.426;2023-02-04T15:31:23;15.50;57.20
49731;DHT22;35622;52.008;5.426;2023-02-04T15:33:48;15.50;57.50
49731;DHT22;35622;52.008;5.426;2023-02-04T15:36:14;15.60;58.00
49731;DHT22;35622;52.008;5.426;2023-02-04T15:38:40;15.50;57.70
49731;DHT22;35622;52.008;5.426;2023-02-04T15:41:05;15.50;57.80